createdAt,value
2023-05-20T00:01:18.758Z,64.32
2023-05-20T00:03:46.706Z,64.39
2023-05-20T00:06:13.990Z,64.50
2023-05-20T00:08:41.125Z,64.61
2023-05-20T00:11:08.189Z,64.65
2023-05-20T00:13:36.324Z,64.78
2023-05-20T00:16:03.448Z,64.78
2023-05-20T00:18:30.985Z,64.73
2023-05-20T00:20:58.081Z,64.72
2023-05-20T00:23:25.076Z,64.62
2023-05-20T00:25:52.107Z,64.50
2023-05-20T00:28:20.068Z,64.44
2023-05-20T00:30:47.316Z,64.38
2023-05-20T00:33:14.416Z,64.39
2023-05-20T00:35:41.483Z,64.27
2023-05-20T00:38:08.522Z,64.12
2023-05-20T00:40:35.646Z,64.10
2023-05-20T00:43:03.318Z,63.92
2023-05-20T00:45:31.424Z,63.87
2023-05-20T00:48:01.774Z,63.69
2023-05-20T00:50:29.023Z,63.57
2023-05-20T00:52:56.414Z,63.42
2023-05-20T00:55:23.468Z,63.32
2023-05-20T00:57:53.209Z,63.14
2023-05-20T01:00:20.400Z,62.98
2023-05-20T01:02:48.150Z,62.92
2023-05-20T01:05:16.698Z,62.78
2023-05-20T01:07:44.213Z,62.55
2023-05-20T01:10:11.773Z,62.73
2023-05-20T01:12:54.667Z,62.72
2023-05-20T01:15:22.701Z,62.64
2023-05-20T01:17:53.124Z,62.60
2023-05-20T01:20:20.901Z,62.51
2023-05-20T01:22:48.880Z,62.52
2023-05-20T01:25:16.087Z,62.44
2023-05-20T01:27:44.207Z,62.35
2023-05-20T01:30:11.631Z,62.33
2023-05-20T01:32:40.758Z,62.29
2023-05-20T01:35:08.620Z,62.13
2023-05-20T01:37:40.367Z,62.02
2023-05-20T01:40:09.035Z,61.92
2023-05-20T01:42:36.266Z,61.73
2023-05-20T01:45:06.308Z,61.71
2023-05-20T01:47:33.459Z,61.69
2023-05-20T01:50:00.692Z,61.58
2023-05-20T01:52:27.882Z,61.58
2023-05-20T01:54:54.901Z,61.55
2023-05-20T01:57:22.349Z,61.47
2023-05-20T01:59:50.234Z,61.36
2023-05-20T02:02:17.536Z,61.34
2023-05-20T02:04:49.137Z,61.26
2023-05-20T02:07:16.716Z,61.24
2023-05-20T02:09:43.776Z,61.11
2023-05-20T02:12:16.483Z,61.02
2023-05-20T02:14:47.872Z,60.88
2023-05-20T02:17:18.131Z,60.83
2023-05-20T02:19:46.036Z,60.50
2023-05-20T02:22:13.993Z,60.23
2023-05-20T02:24:41.852Z,60.37
2023-05-20T02:27:09.644Z,60.21
2023-05-20T02:29:39.301Z,60.03
2023-05-20T02:32:06.821Z,59.95
2023-05-20T02:34:33.969Z,59.95
2023-05-20T02:37:01.579Z,59.92
2023-05-20T02:39:29.445Z,59.91
2023-05-20T02:41:56.632Z,59.91
2023-05-20T02:44:24.162Z,59.91
2023-05-20T02:46:51.574Z,59.67
2023-05-20T02:49:18.625Z,59.52
2023-05-20T02:51:45.849Z,59.49
2023-05-20T02:54:12.886Z,59.42
2023-05-20T02:56:39.944Z,59.52
2023-05-20T02:59:07.632Z,59.46
2023-05-20T03:01:36.247Z,59.31
2023-05-20T03:04:03.627Z,59.12
2023-05-20T03:06:32.182Z,59.21
2023-05-20T03:08:59.694Z,59.11
2023-05-20T03:11:26.907Z,58.97
2023-05-20T03:13:53.963Z,58.99
2023-05-20T03:16:21.102Z,59.01
2023-05-20T03:18:48.970Z,59.07
2023-05-20T03:21:17.317Z,59.06
2023-05-20T03:23:44.407Z,58.81
2023-05-20T03:26:11.766Z,58.63
2023-05-20T03:28:39.691Z,58.55
2023-05-20T03:31:07.487Z,58.71
2023-05-20T03:33:35.736Z,58.48
2023-05-20T03:36:02.982Z,58.37
2023-05-20T03:38:30.893Z,58.32
2023-05-20T03:40:58.034Z,57.87
2023-05-20T03:43:25.766Z,57.94
2023-05-20T03:45:52.804Z,57.85
2023-05-20T03:48:20.455Z,57.48
2023-05-20T03:50:49.543Z,57.22
2023-05-20T03:53:17.646Z,57.25
2023-05-20T03:55:44.716Z,57.16
2023-05-20T03:58:13.811Z,57.10
2023-05-20T04:00:41.390Z,57.12
2023-05-20T04:03:09.002Z,57.08
2023-05-20T04:05:37.176Z,56.75
2023-05-20T04:08:07.478Z,56.78
2023-05-20T04:10:34.891Z,56.84
2023-05-20T04:13:02.221Z,56.72
2023-05-20T04:15:30.012Z,56.82
2023-05-20T04:17:58.138Z,56.65
2023-05-20T04:20:25.505Z,56.61
2023-05-20T04:22:55.430Z,56.61
2023-05-20T04:25:22.617Z,56.53
2023-05-20T04:27:50.347Z,56.64
2023-05-20T04:30:18.746Z,56.73
2023-05-20T04:32:45.949Z,56.94
2023-05-20T04:35:14.119Z,56.86
2023-05-20T04:37:54.219Z,56.45
2023-05-20T04:40:21.833Z,56.26
2023-05-20T04:42:49.104Z,56.29
2023-05-20T04:45:16.138Z,56.36
2023-05-20T04:47:44.602Z,56.34
2023-05-20T04:50:11.973Z,55.90
2023-05-20T04:52:42.076Z,55.72
2023-05-20T04:55:10.479Z,55.73
2023-05-20T04:57:40.342Z,55.62
2023-05-20T05:00:11.831Z,55.26
2023-05-20T05:02:39.831Z,55.25
2023-05-20T05:05:07.636Z,55.22
2023-05-20T05:07:34.896Z,54.98
2023-05-20T05:10:01.970Z,54.24
2023-05-20T05:12:30.564Z,54.01
2023-05-20T05:14:58.987Z,54.29
2023-05-20T05:17:26.451Z,54.27
2023-05-20T05:19:53.467Z,54.36
2023-05-20T05:22:20.819Z,54.41
2023-05-20T05:24:49.379Z,54.19
2023-05-20T05:27:16.427Z,53.76
2023-05-20T05:29:43.398Z,53.72
2023-05-20T05:32:11.686Z,53.61
2023-05-20T05:34:39.289Z,53.66
2023-05-20T05:37:06.448Z,53.31
2023-05-20T05:39:34.892Z,53.19
2023-05-20T05:42:02.019Z,52.85
2023-05-20T05:44:29.153Z,53.04
2023-05-20T05:46:57.829Z,52.58
2023-05-20T05:49:24.935Z,52.19
2023-05-20T05:51:52.546Z,52.14
2023-05-20T05:54:22.164Z,52.23
2023-05-20T05:56:51.575Z,52.20
2023-05-20T05:59:19.481Z,52.04
2023-05-20T06:01:46.571Z,51.81
2023-05-20T06:04:15.294Z,51.77
2023-05-20T06:06:42.443Z,51.32
2023-05-20T06:09:09.595Z,51.00
2023-05-20T06:11:36.802Z,50.55
2023-05-20T06:14:03.840Z,50.50
2023-05-20T06:16:31.428Z,50.43
2023-05-20T06:19:02.659Z,50.69
2023-05-20T06:21:32.811Z,50.31
2023-05-20T06:24:01.034Z,49.49
2023-05-20T06:26:28.085Z,49.26
2023-05-20T06:28:56.581Z,49.05
2023-05-20T06:31:23.788Z,48.95
2023-05-20T06:33:51.754Z,48.28
2023-05-20T06:36:18.906Z,48.26
2023-05-20T06:38:46.781Z,47.60
2023-05-20T06:41:15.270Z,46.53
2023-05-20T06:43:42.408Z,45.90
2023-05-20T06:46:38.828Z,46.10
2023-05-20T06:49:09.805Z,45.34
2023-05-20T06:51:36.919Z,44.83
2023-05-20T06:54:04.435Z,44.88
2023-05-20T06:56:31.488Z,44.88
2023-05-20T06:58:59.366Z,44.57
2023-05-20T07:01:26.624Z,44.37
2023-05-20T07:03:53.838Z,44.61
2023-05-20T07:06:21.038Z,44.26
2023-05-20T07:08:48.336Z,44.34
2023-05-20T07:11:15.871Z,44.20
2023-05-20T07:13:43.013Z,43.61
2023-05-20T07:16:10.182Z,42.55
2023-05-20T07:18:39.884Z,42.44
2023-05-20T07:21:06.977Z,42.58
2023-05-20T07:24:00.035Z,42.66
2023-05-20T07:26:27.330Z,42.52
2023-05-20T07:28:55.028Z,42.15
2023-05-20T07:31:24.409Z,41.99
2023-05-20T07:33:51.636Z,41.63
2023-05-20T07:36:18.646Z,41.73
2023-05-20T07:39:00.985Z,41.76
2023-05-20T07:41:32.258Z,41.04
2023-05-20T07:43:59.626Z,39.87
2023-05-20T07:46:27.399Z,39.92
2023-05-20T07:48:54.511Z,40.24
2023-05-20T07:51:21.610Z,40.46
2023-05-20T07:53:48.834Z,39.88
2023-05-20T07:56:16.685Z,39.44
2023-05-20T07:58:43.756Z,39.10
2023-05-20T08:01:11.888Z,39.01
2023-05-20T08:03:39.023Z,39.03
2023-05-20T08:06:10.435Z,38.43
2023-05-20T08:08:37.945Z,38.34
2023-05-20T08:11:10.057Z,37.66
2023-05-20T08:13:39.079Z,37.35
2023-05-20T08:16:06.712Z,37.53
2023-05-20T08:18:38.127Z,37.83
2023-05-20T08:21:06.734Z,37.97
2023-05-20T08:23:36.802Z,37.93
2023-05-20T08:26:06.743Z,37.22
2023-05-20T08:28:34.253Z,35.67
2023-05-20T08:31:04.364Z,35.50
2023-05-20T08:33:31.876Z,35.80
2023-05-20T08:35:59.436Z,35.58
2023-05-20T08:38:28.334Z,34.52
2023-05-20T08:40:57.077Z,33.65
2023-05-20T08:43:25.193Z,33.66
2023-05-20T08:45:55.211Z,33.79
2023-05-20T08:48:25.992Z,33.61
2023-05-20T08:50:53.214Z,33.75
2023-05-20T08:53:21.327Z,34.06
2023-05-20T08:55:54.498Z,33.80
2023-05-20T08:58:23.638Z,33.92
2023-05-20T09:00:51.539Z,33.40
2023-05-20T09:03:20.497Z,33.36
2023-05-20T09:05:48.139Z,33.04
2023-05-20T09:08:16.427Z,31.93
2023-05-20T09:10:43.487Z,31.09
2023-05-20T09:13:11.026Z,31.41
2023-05-20T09:15:39.578Z,31.68
2023-05-20T09:18:07.730Z,31.49
2023-05-20T09:20:37.637Z,31.27
2023-05-20T09:23:06.595Z,31.02
2023-05-20T09:25:34.302Z,31.05
2023-05-20T09:28:01.575Z,31.00
2023-05-20T09:30:28.671Z,31.00
2023-05-20T09:32:56.733Z,30.66
2023-05-20T09:35:24.709Z,30.71
2023-05-20T09:37:58.518Z,30.02
2023-05-20T09:40:29.115Z,29.07
2023-05-20T09:43:08.941Z,29.60
2023-05-20T09:45:36.457Z,29.92
2023-05-20T09:48:04.245Z,28.99
2023-05-20T09:50:31.594Z,28.98
2023-05-20T09:53:02.962Z,29.14
2023-05-20T09:55:30.325Z,28.57
2023-05-20T09:57:57.426Z,28.71
2023-05-20T10:00:24.461Z,28.48
2023-05-20T10:02:52.500Z,28.14
2023-05-20T10:05:24.794Z,28.67
2023-05-20T10:07:56.878Z,28.95
2023-05-20T10:10:34.338Z,29.05
2023-05-20T10:13:30.922Z,28.57
2023-05-20T10:16:07.230Z,27.84
2023-05-20T10:19:07.508Z,28.10
2023-05-20T10:21:34.513Z,28.11
2023-05-20T10:24:11.156Z,28.14
2023-05-20T10:26:42.452Z,27.80
2023-05-20T10:29:19.001Z,26.93
2023-05-20T10:31:51.082Z,27.15
2023-05-20T10:34:22.350Z,26.99
2023-05-20T10:36:59.571Z,27.09
2023-05-20T10:39:28.922Z,27.45
2023-05-20T10:42:09.419Z,27.30
2023-05-20T10:44:44.302Z,27.41
2023-05-20T10:49:45.176Z,27.51
2023-05-20T10:52:13.600Z,26.66
2023-05-20T10:54:45.211Z,25.96
2023-05-20T10:57:12.464Z,25.92
2023-05-20T10:59:39.562Z,26.13
2023-05-20T11:02:06.609Z,26.35
2023-05-20T11:04:35.995Z,26.85
2023-05-20T11:07:03.301Z,27.32
2023-05-20T11:09:32.073Z,26.80
2023-05-20T11:11:59.136Z,26.19
2023-05-20T11:14:28.770Z,26.35
2023-05-20T11:16:59.527Z,26.03
2023-05-20T11:19:27.929Z,26.54
2023-05-20T11:21:55.234Z,27.05
2023-05-20T11:24:29.412Z,26.86
2023-05-20T11:26:57.684Z,27.11
2023-05-20T11:29:26.429Z,27.11
2023-05-20T11:31:53.585Z,27.26
2023-05-20T11:34:24.133Z,27.01
2023-05-20T11:36:57.453Z,26.65
2023-05-20T11:39:25.142Z,26.65
2023-05-20T11:41:52.310Z,26.43
2023-05-20T11:44:22.470Z,26.30
2023-05-20T11:46:49.526Z,26.48
2023-05-20T11:49:16.772Z,27.15
2023-05-20T11:51:44.055Z,27.10
2023-05-20T11:54:11.566Z,26.69
2023-05-20T11:56:39.034Z,26.30
2023-05-20T11:59:06.732Z,26.20
2023-05-20T12:01:40.960Z,26.64
2023-05-20T12:04:08.551Z,26.68
2023-05-20T12:06:37.585Z,26.40
2023-05-20T12:09:07.452Z,26.01
2023-05-20T12:11:39.968Z,25.98
2023-05-20T12:14:08.093Z,26.50
2023-05-20T12:16:37.275Z,26.85
2023-05-20T12:19:04.852Z,26.55
2023-05-20T12:21:32.194Z,26.35
2023-05-20T12:23:59.812Z,26.19
2023-05-20T12:26:28.010Z,26.03
2023-05-20T12:28:55.287Z,26.64
2023-05-20T12:31:23.839Z,26.52
2023-05-20T12:33:51.042Z,26.47
2023-05-20T12:36:19.970Z,26.56
2023-05-20T12:38:47.235Z,26.12
2023-05-20T12:41:14.270Z,26.57
2023-05-20T12:43:41.417Z,26.50
2023-05-20T12:46:08.499Z,26.60
2023-05-20T12:48:35.836Z,26.64
2023-05-20T12:51:03.142Z,26.71
2023-05-20T12:53:30.172Z,26.42
2023-05-20T12:55:57.213Z,27.00
2023-05-20T12:58:24.439Z,26.82
2023-05-20T13:00:51.536Z,26.43
2023-05-20T13:03:18.770Z,26.43
2023-05-20T13:05:46.112Z,26.24
2023-05-20T13:08:15.517Z,26.21
2023-05-20T13:10:43.071Z,26.21
2023-05-20T13:13:10.153Z,26.39
2023-05-20T13:15:37.214Z,26.07
2023-05-20T13:18:06.684Z,25.94
2023-05-20T13:20:34.321Z,26.54
2023-05-20T13:23:01.684Z,26.54
2023-05-20T13:25:29.457Z,26.19
2023-05-20T13:27:56.667Z,26.03
2023-05-20T13:30:23.751Z,26.15
2023-05-20T13:32:52.213Z,26.17
2023-05-20T13:35:19.329Z,26.61
2023-05-20T13:37:46.447Z,26.31
2023-05-20T13:40:13.555Z,26.66
2023-05-20T13:42:40.660Z,26.53
2023-05-20T13:45:08.229Z,26.24
2023-05-20T13:47:35.315Z,25.91
2023-05-20T13:50:03.401Z,25.91
2023-05-20T13:52:30.890Z,25.58
2023-05-20T13:54:57.917Z,25.50
2023-05-20T13:57:24.964Z,25.15
2023-05-20T13:59:51.937Z,25.16
2023-05-20T14:02:19.343Z,25.37
2023-05-20T14:04:47.367Z,25.12
2023-05-20T14:07:14.447Z,24.74
2023-05-20T14:09:41.509Z,24.59
2023-05-20T14:12:09.103Z,24.81
2023-05-20T14:14:36.304Z,24.26
2023-05-20T14:17:03.421Z,23.95
2023-05-20T14:19:31.060Z,23.12
2023-05-20T14:22:01.359Z,22.90
2023-05-20T14:24:28.581Z,22.16
2023-05-20T14:26:55.653Z,21.35
2023-05-20T14:29:22.685Z,21.73
2023-05-20T14:31:49.871Z,21.72
2023-05-20T14:34:16.947Z,21.49
2023-05-20T14:36:44.544Z,21.06
2023-05-20T14:39:11.531Z,20.29
2023-05-20T14:41:38.598Z,19.72
2023-05-20T14:44:05.911Z,19.66
2023-05-20T14:46:32.983Z,19.81
2023-05-20T14:49:00.428Z,19.81
2023-05-20T14:51:27.561Z,19.60
2023-05-20T14:53:54.615Z,19.58
2023-05-20T14:56:21.893Z,19.50
2023-05-20T14:58:48.848Z,19.35
2023-05-20T15:01:16.021Z,19.23
2023-05-20T15:03:43.152Z,18.90
2023-05-20T15:06:12.108Z,18.43
2023-05-20T15:08:39.148Z,18.56
2023-05-20T15:11:06.290Z,18.37
2023-05-20T15:13:33.287Z,18.45
2023-05-20T15:16:00.458Z,18.59
2023-05-20T15:18:27.538Z,18.37
2023-05-20T15:20:54.570Z,18.14
2023-05-20T15:23:21.649Z,18.24
2023-05-20T15:25:50.593Z,18.22
2023-05-20T15:28:19.912Z,18.22
2023-05-20T15:30:51.287Z,18.35
2023-05-20T15:33:18.378Z,18.68
2023-05-20T15:35:45.969Z,18.75
2023-05-20T15:38:13.798Z,19.15
2023-05-20T15:40:42.411Z,18.86
2023-05-20T15:43:09.503Z,18.59
2023-05-20T15:45:36.623Z,18.17
2023-05-20T15:48:03.854Z,18.50
2023-05-20T15:50:31.192Z,18.91
2023-05-20T15:52:58.259Z,18.79
2023-05-20T15:55:25.311Z,18.50
2023-05-20T15:57:52.395Z,18.47
2023-05-20T16:00:21.335Z,18.35
2023-05-20T16:02:48.710Z,18.36
2023-05-20T16:05:16.081Z,18.69
2023-05-20T16:07:43.143Z,18.66
2023-05-20T16:10:10.801Z,19.04
2023-05-20T16:12:37.955Z,18.95
2023-05-20T16:15:05.395Z,18.79
2023-05-20T16:17:32.480Z,19.22
2023-05-20T16:19:59.519Z,19.48
2023-05-20T16:22:26.598Z,19.85
2023-05-20T16:24:53.748Z,19.84
2023-05-20T16:27:20.799Z,19.88
2023-05-20T16:29:47.829Z,19.89
2023-05-20T16:32:14.986Z,19.79
2023-05-20T16:34:42.001Z,20.15
2023-05-20T16:37:10.312Z,20.32
2023-05-20T16:39:37.364Z,20.57
2023-05-20T16:42:04.579Z,20.79
2023-05-20T16:44:31.667Z,20.78
2023-05-20T16:46:58.707Z,21.01
2023-05-20T16:49:25.727Z,21.05
2023-05-20T16:51:52.929Z,21.14
2023-05-20T16:54:20.086Z,21.06
2023-05-20T16:56:49.800Z,21.25
2023-05-20T16:59:17.226Z,21.57
2023-05-20T17:01:44.700Z,22.02
2023-05-20T17:04:11.944Z,22.43
2023-05-20T17:06:39.995Z,22.85
2023-05-20T17:09:07.429Z,23.42
2023-05-20T17:11:34.639Z,23.95
2023-05-20T17:14:01.714Z,24.42
2023-05-20T17:16:28.991Z,24.71
2023-05-20T17:18:56.515Z,25.11
2023-05-20T17:21:23.607Z,25.46
2023-05-20T17:23:51.317Z,25.62
2023-05-20T17:26:18.381Z,25.91
2023-05-20T17:28:45.764Z,26.28
2023-05-20T17:31:14.037Z,26.47
2023-05-20T17:33:41.307Z,26.71
2023-05-20T17:36:08.390Z,27.03
2023-05-20T17:38:36.125Z,27.43
2023-05-20T17:41:03.144Z,27.67
2023-05-20T17:43:31.644Z,27.79
2023-05-20T17:45:58.748Z,28.07
2023-05-20T17:48:25.849Z,28.40
2023-05-20T17:50:52.897Z,28.69
2023-05-20T17:53:22.039Z,28.65
2023-05-20T17:55:49.622Z,28.86
2023-05-20T17:58:17.096Z,29.22
2023-05-20T18:00:44.297Z,29.33
2023-05-20T18:03:11.553Z,29.56
2023-05-20T18:05:38.661Z,29.79
2023-05-20T18:08:05.744Z,29.97
2023-05-20T18:10:33.218Z,30.02
2023-05-20T18:13:01.427Z,30.24
2023-05-20T18:15:28.548Z,30.16
2023-05-20T18:17:55.708Z,30.31
2023-05-20T18:20:22.931Z,30.42
2023-05-20T18:22:52.425Z,30.63
2023-05-20T18:25:19.404Z,30.79
2023-05-20T18:27:46.500Z,30.96
2023-05-20T18:30:13.538Z,31.12
2023-05-20T18:32:40.768Z,31.24
2023-05-20T18:35:08.310Z,31.44
2023-05-20T18:37:35.340Z,31.66
2023-05-20T18:40:02.473Z,31.83
2023-05-20T18:42:29.481Z,31.89
2023-05-20T18:44:56.707Z,32.00
2023-05-20T18:47:23.798Z,32.21
2023-05-20T18:49:51.061Z,32.42
2023-05-20T18:52:18.218Z,32.58
2023-05-20T18:54:45.187Z,32.70
2023-05-20T18:57:12.309Z,32.81
2023-05-20T18:59:39.346Z,33.09
2023-05-20T19:02:06.396Z,33.12
2023-05-20T19:04:33.382Z,33.24
2023-05-20T19:07:01.766Z,33.42
2023-05-20T19:09:28.767Z,33.59
2023-05-20T19:11:59.309Z,33.86
2023-05-20T19:14:26.462Z,33.91
2023-05-20T19:16:53.613Z,33.93
2023-05-20T19:19:20.811Z,33.94
2023-05-20T19:21:49.377Z,34.08
2023-05-20T19:24:17.890Z,34.35
2023-05-20T19:26:45.326Z,34.54
2023-05-20T19:29:12.360Z,34.57
2023-05-20T19:31:45.720Z,34.67
2023-05-20T19:34:13.126Z,34.88
2023-05-20T19:36:42.906Z,35.06
2023-05-20T19:39:10.210Z,35.15
2023-05-20T19:41:38.744Z,35.32
2023-05-20T19:44:06.443Z,35.37
2023-05-20T19:46:33.702Z,35.61
2023-05-20T19:49:02.278Z,35.75
2023-05-20T19:51:29.312Z,35.88
2023-05-20T19:53:57.683Z,36.14
2023-05-20T19:56:24.928Z,36.29
2023-05-20T19:58:52.114Z,36.43
2023-05-20T20:01:19.144Z,36.66
2023-05-20T20:03:46.270Z,36.75
2023-05-20T20:06:16.267Z,36.86
2023-05-20T20:08:46.208Z,36.92
2023-05-20T20:11:13.363Z,37.11
2023-05-20T20:13:40.372Z,37.24
2023-05-20T20:16:07.994Z,37.42
2023-05-20T20:18:36.272Z,37.61
2023-05-20T20:21:06.493Z,37.51
2023-05-20T20:23:36.995Z,37.74
2023-05-20T20:26:05.921Z,37.81
2023-05-20T20:28:32.940Z,37.89
2023-05-20T20:30:59.972Z,38.08
2023-05-20T20:33:27.888Z,38.14
2023-05-20T20:35:57.076Z,38.30
2023-05-20T20:38:24.270Z,38.38
2023-05-20T20:40:54.111Z,38.59
2023-05-20T20:43:23.020Z,38.74
2023-05-20T20:45:53.337Z,38.87
2023-05-20T20:48:20.434Z,39.13
2023-05-20T20:50:48.340Z,39.08
2023-05-20T20:53:18.450Z,39.17
2023-05-20T20:55:48.549Z,39.30
2023-05-20T20:58:15.800Z,39.39
2023-05-20T21:00:44.835Z,39.49
2023-05-20T21:03:13.239Z,39.66
2023-05-20T21:05:40.505Z,39.70
2023-05-20T21:08:08.658Z,39.69
2023-05-20T21:10:37.382Z,39.85
2023-05-20T21:13:04.584Z,39.93
2023-05-20T21:15:31.605Z,39.91
2023-05-20T21:17:58.778Z,39.99
2023-05-20T21:20:25.850Z,39.89
2023-05-20T21:22:52.948Z,40.06
2023-05-20T21:25:20.058Z,40.04
2023-05-20T21:27:47.143Z,40.19
2023-05-20T21:30:16.049Z,40.29
2023-05-20T21:32:43.314Z,40.44
2023-05-20T21:35:10.430Z,40.60
2023-05-20T21:37:37.504Z,40.69
2023-05-20T21:40:05.023Z,40.89
2023-05-20T21:42:33.049Z,41.02
2023-05-20T21:45:00.258Z,41.27
2023-05-20T21:47:27.377Z,41.27
2023-05-20T21:49:54.498Z,41.49
2023-05-20T21:52:21.497Z,41.47
2023-05-20T21:54:48.659Z,41.58
2023-05-20T21:57:15.728Z,41.73
2023-05-20T21:59:42.791Z,41.87
2023-05-20T22:02:09.862Z,41.96
2023-05-20T22:04:37.487Z,42.07
2023-05-20T22:07:04.681Z,42.24
2023-05-20T22:09:31.808Z,42.26
2023-05-20T22:12:00.180Z,42.48
2023-05-20T22:14:27.633Z,42.59
2023-05-20T22:16:55.784Z,42.74
2023-05-20T22:19:22.823Z,42.82
2023-05-20T22:21:51.184Z,43.09
2023-05-20T22:24:18.391Z,43.04
2023-05-20T22:26:45.530Z,43.18
2023-05-20T22:29:12.554Z,43.33
2023-05-20T22:31:39.861Z,43.38
2023-05-20T22:34:06.949Z,43.39
2023-05-20T22:36:34.369Z,43.49
2023-05-20T22:39:02.397Z,43.58
2023-05-20T22:41:29.511Z,43.63
2023-05-20T22:43:57.515Z,43.62
2023-05-20T22:46:25.317Z,43.69
2023-05-20T22:48:53.278Z,43.77
2023-05-20T22:51:24.842Z,43.82
2023-05-20T22:53:52.148Z,43.95
2023-05-20T22:56:19.497Z,43.99
2023-05-20T22:58:46.626Z,43.95
2023-05-20T23:01:16.927Z,43.95
2023-05-20T23:03:47.024Z,44.20
2023-05-20T23:06:14.159Z,44.23
2023-05-20T23:08:45.377Z,44.20
2023-05-20T23:11:12.396Z,44.19
2023-05-20T23:13:39.450Z,44.14
2023-05-20T23:16:06.672Z,44.27
2023-05-20T23:18:33.806Z,44.21
2023-05-20T23:21:00.913Z,44.20
2023-05-20T23:23:31.700Z,44.32
2023-05-20T23:25:59.768Z,44.32
2023-05-20T23:28:26.893Z,44.39
2023-05-20T23:30:54.828Z,44.45
2023-05-20T23:33:26.559Z,44.55
2023-05-20T23:35:53.686Z,44.58
2023-05-20T23:38:21.761Z,44.71
2023-05-20T23:40:49.366Z,44.80
2023-05-20T23:43:16.499Z,44.99
2023-05-20T23:45:43.509Z,45.04
2023-05-20T23:48:13.737Z,45.13
2023-05-20T23:50:40.981Z,45.31
2023-05-20T23:53:08.025Z,45.36
2023-05-20T23:55:35.566Z,45.36
2023-05-20T23:58:02.794Z,45.53
